createdAt,value
2023-04-15T00:01:20.022Z,98528.97
2023-04-15T00:03:48.633Z,98521.84
2023-04-15T00:06:16.924Z,98524.66
2023-04-15T00:08:45.548Z,98529.97
2023-04-15T00:11:14.118Z,98523.31
2023-04-15T00:13:42.768Z,98521.78
2023-04-15T00:16:12.065Z,98524.97
2023-04-15T00:18:41.539Z,98516.66
2023-04-15T00:21:09.718Z,98520.81
2023-04-15T00:23:37.802Z,98530.75
2023-04-15T00:26:05.766Z,98529.75
2023-04-15T00:28:33.853Z,98531.91
2023-04-15T00:31:01.987Z,98524.78
2023-04-15T00:33:29.926Z,98523.94
2023-04-15T00:35:58.010Z,98528.44
2023-04-15T00:38:26.181Z,98529.75
2023-04-15T00:40:56.565Z,98529.25
2023-04-15T00:43:25.965Z,98520.47
2023-04-15T00:45:57.616Z,98524.94
2023-04-15T00:48:26.304Z,98526.09
2023-04-15T00:50:54.306Z,98526.09
2023-04-15T00:53:22.557Z,98524.09
2023-04-15T00:55:51.450Z,98524.25
2023-04-15T00:58:19.515Z,98527.06
2023-04-15T01:00:48.156Z,98528.75
2023-04-15T01:03:16.341Z,98530.72
2023-04-15T01:05:44.334Z,98527.25
2023-04-15T01:08:12.646Z,98529.91
2023-04-15T01:10:41.912Z,98525.72
2023-04-15T01:13:09.826Z,98524.59
2023-04-15T01:15:38.097Z,98519.44
2023-04-15T01:18:07.580Z,98519.59
2023-04-15T01:20:36.591Z,98517.41
2023-04-15T01:23:04.640Z,98524.41
2023-04-15T01:25:35.794Z,98525.72
2023-04-15T01:28:03.934Z,98522.41
2023-04-15T01:30:36.653Z,98519.78
2023-04-15T01:33:04.590Z,98522.41
2023-04-15T01:35:32.427Z,98531.03
2023-04-15T01:38:07.733Z,98524.06
2023-04-15T01:40:35.948Z,98525.06
2023-04-15T01:43:04.159Z,98533.31
2023-04-15T01:45:32.493Z,98527.88
2023-04-15T01:48:00.895Z,98527.72
2023-04-15T01:50:28.909Z,98535.00
2023-04-15T01:52:57.429Z,98536.97
2023-04-15T01:55:26.251Z,98528.69
2023-04-15T01:57:54.423Z,98538.13
2023-04-15T02:00:23.471Z,98530.84
2023-04-15T02:02:53.446Z,98532.00
2023-04-15T02:05:21.537Z,98523.03
2023-04-15T02:07:49.872Z,98527.38
2023-04-15T02:10:18.006Z,98530.84
2023-04-15T02:12:45.921Z,98519.41
2023-04-15T02:15:13.978Z,98519.25
2023-04-15T02:17:46.125Z,98522.72
2023-04-15T02:20:17.112Z,98525.38
2023-04-15T02:22:45.506Z,98530.53
2023-04-15T02:25:20.441Z,98516.44
2023-04-15T02:27:48.491Z,98532.19
2023-04-15T02:30:18.278Z,98528.69
2023-04-15T02:32:46.760Z,98533.03
2023-04-15T02:35:14.765Z,98541.97
2023-04-15T02:37:45.925Z,98538.34
2023-04-15T02:40:14.506Z,98532.03
2023-04-15T02:42:44.356Z,98534.69
2023-04-15T02:45:14.588Z,98528.38
2023-04-15T02:47:44.586Z,98530.22
2023-04-15T02:50:13.512Z,98526.56
2023-04-15T02:52:43.531Z,98517.94
2023-04-15T02:55:13.104Z,98518.75
2023-04-15T02:57:41.531Z,98517.75
2023-04-15T03:00:12.244Z,98520.59
2023-04-15T03:02:47.120Z,98525.59
2023-04-15T03:05:15.570Z,98521.09
2023-04-15T03:07:49.428Z,98511.50
2023-04-15T03:10:17.824Z,98508.00
2023-04-15T03:12:47.593Z,98503.69
2023-04-15T03:15:19.550Z,98503.53
2023-04-15T03:17:51.161Z,98507.31
2023-04-15T03:20:19.862Z,98510.66
2023-04-15T03:22:49.556Z,98517.75
2023-04-15T03:25:17.691Z,98515.94
2023-04-15T03:27:45.616Z,98507.84
2023-04-15T03:30:15.200Z,98512.31
2023-04-15T03:32:43.179Z,98518.44
2023-04-15T03:35:11.284Z,98522.94
2023-04-15T03:37:39.440Z,98519.47
2023-04-15T03:40:08.792Z,98516.97
2023-04-15T03:42:36.706Z,98518.78
2023-04-15T03:45:06.030Z,98524.78
2023-04-15T03:47:33.973Z,98518.34
2023-04-15T03:50:01.914Z,98522.47
2023-04-15T03:52:30.106Z,98522.78
2023-04-15T03:54:57.931Z,98521.97
2023-04-15T03:57:25.798Z,98523.63
2023-04-15T03:59:53.916Z,98522.47
2023-04-15T04:02:23.225Z,98524.00
2023-04-15T04:04:51.416Z,98516.34
2023-04-15T04:07:19.516Z,98520.81
2023-04-15T04:09:47.531Z,98510.22
2023-04-15T04:12:15.729Z,98520.34
2023-04-15T04:14:43.947Z,98515.88
2023-04-15T04:17:11.900Z,98525.44
2023-04-15T04:19:39.785Z,98519.97
2023-04-15T04:22:08.586Z,98521.66
2023-04-15T04:24:36.576Z,98519.81
2023-04-15T04:27:04.521Z,98519.13
2023-04-15T04:29:32.868Z,98519.13
2023-04-15T04:32:01.285Z,98519.13
2023-04-15T04:34:29.383Z,98519.13
2023-04-15T04:36:57.567Z,98520.81
2023-04-15T04:39:25.477Z,98505.56
2023-04-15T04:41:53.384Z,98519.53
2023-04-15T04:44:22.407Z,98523.50
2023-04-15T04:46:50.355Z,98525.31
2023-04-15T04:49:18.307Z,98529.66
2023-04-15T04:51:47.342Z,98525.81
2023-04-15T04:54:15.312Z,98527.47
2023-04-15T04:56:43.628Z,98526.63
2023-04-15T04:59:11.586Z,98524.16
2023-04-15T05:01:39.525Z,98531.09
2023-04-15T05:04:07.977Z,98529.47
2023-04-15T05:06:37.128Z,98531.09
2023-04-15T05:09:05.031Z,98533.59
2023-04-15T05:11:33.520Z,98538.91
2023-04-15T05:14:02.569Z,98539.41
2023-04-15T05:16:30.645Z,98537.41
2023-04-15T05:18:58.682Z,98544.03
2023-04-15T05:21:27.722Z,98546.06
2023-04-15T05:23:56.954Z,98551.19
2023-04-15T05:26:25.167Z,98552.00
2023-04-15T05:28:54.090Z,98552.00
2023-04-15T05:31:22.553Z,98556.81
2023-04-15T05:33:52.344Z,98552.34
2023-04-15T05:36:20.503Z,98562.63
2023-04-15T05:38:48.497Z,98559.81
2023-04-15T05:41:19.594Z,98557.47
2023-04-15T05:43:48.295Z,98550.53
2023-04-15T05:46:17.397Z,98554.00
2023-04-15T05:48:45.625Z,98559.00
2023-04-15T05:51:13.871Z,98557.03
2023-04-15T05:53:41.952Z,98566.78
2023-04-15T05:56:09.832Z,98553.03
2023-04-15T05:58:38.789Z,98557.53
2023-04-15T06:01:07.384Z,98559.69
2023-04-15T06:03:35.873Z,98550.09
2023-04-15T06:06:04.385Z,98556.25
2023-04-15T06:08:32.421Z,98550.13
2023-04-15T06:11:00.560Z,98554.59
2023-04-15T06:13:29.368Z,98554.75
2023-04-15T06:15:57.278Z,98550.34
2023-04-15T06:18:25.236Z,98554.16
2023-04-15T06:20:53.494Z,98559.63
2023-04-15T06:23:21.407Z,98560.81
2023-04-15T06:25:49.562Z,98558.81
2023-04-15T06:28:18.102Z,98565.66
2023-04-15T06:30:46.014Z,98566.78
2023-04-15T06:33:14.010Z,98574.75
2023-04-15T06:35:42.358Z,98574.91
2023-04-15T06:38:10.655Z,98573.63
2023-04-15T06:40:38.611Z,98575.09
2023-04-15T06:43:07.248Z,98580.25
2023-04-15T06:45:35.543Z,98581.41
2023-04-15T06:48:03.530Z,98579.28
2023-04-15T06:50:31.756Z,98581.25
2023-04-15T06:52:59.840Z,98580.91
2023-04-15T06:55:27.740Z,98578.75
2023-04-15T06:57:55.758Z,98587.75
2023-04-15T07:00:23.892Z,98584.75
2023-04-15T07:02:52.071Z,98592.38
2023-04-15T07:05:20.588Z,98593.56
2023-04-15T07:07:48.582Z,98598.53
2023-04-15T07:10:16.467Z,98602.00
2023-04-15T07:12:44.805Z,98596.84
2023-04-15T07:15:12.803Z,98610.63
2023-04-15T07:17:43.413Z,98602.00
2023-04-15T07:20:13.069Z,98615.78
2023-04-15T07:22:41.238Z,98620.06
2023-04-15T07:25:09.797Z,98629.41
2023-04-15T07:27:38.082Z,98622.28
2023-04-15T07:30:07.296Z,98621.63
2023-04-15T07:32:35.188Z,98618.16
2023-04-15T07:35:04.084Z,98630.09
2023-04-15T07:37:32.334Z,98634.25
2023-04-15T07:40:00.245Z,98630.78
2023-04-15T07:42:29.457Z,98629.94
2023-04-15T07:44:57.993Z,98626.28
2023-04-15T07:47:26.059Z,98634.09
2023-04-15T07:49:54.161Z,98647.84
2023-04-15T07:52:22.433Z,98638.09
2023-04-15T07:54:54.155Z,98645.56
2023-04-15T07:57:22.490Z,98651.91
2023-04-15T07:59:50.781Z,98640.94
2023-04-15T08:02:18.945Z,98643.25
2023-04-15T08:04:47.351Z,98648.75
2023-04-15T08:07:16.261Z,98651.56
2023-04-15T08:09:44.572Z,98656.41
2023-04-15T08:12:13.714Z,98653.25
2023-04-15T08:14:41.950Z,98655.25
2023-04-15T08:17:10.046Z,98663.38
2023-04-15T08:19:39.528Z,98660.03
2023-04-15T08:22:10.433Z,98665.88
2023-04-15T08:24:44.309Z,98673.00
2023-04-15T08:27:12.245Z,98674.84
2023-04-15T08:29:40.786Z,98686.44
2023-04-15T08:32:09.823Z,98688.94
2023-04-15T08:34:37.887Z,98690.47
2023-04-15T08:37:06.579Z,98693.47
2023-04-15T08:49:22.753Z,98709.03
2023-04-15T08:51:50.629Z,98707.88
2023-04-15T08:54:19.602Z,98706.38
2023-04-15T08:56:49.031Z,98712.66
2023-04-15T08:59:18.172Z,98711.50
2023-04-15T09:01:46.651Z,98712.50
2023-04-15T09:04:15.080Z,98716.88
2023-04-15T09:06:43.318Z,98712.41
2023-04-15T09:09:14.593Z,98718.53
2023-04-15T09:11:43.405Z,98718.53
2023-04-15T09:14:11.512Z,98722.38
2023-04-15T09:17:02.919Z,98722.69
2023-04-15T09:19:33.636Z,98718.53
2023-04-15T09:22:02.859Z,98715.88
2023-04-15T09:24:41.387Z,98717.91
2023-04-15T09:27:09.561Z,98713.41
2023-04-15T09:29:37.855Z,98707.94
2023-04-15T09:32:12.508Z,98712.44
2023-04-15T09:34:40.696Z,98705.94
2023-04-15T09:37:11.140Z,98713.47
2023-04-15T09:39:53.071Z,98712.31
2023-04-15T09:42:24.747Z,98709.31
2023-04-15T09:44:56.143Z,98704.50
2023-04-15T09:47:34.925Z,98705.50
2023-04-15T09:50:03.711Z,98710.41
2023-04-15T09:52:32.201Z,98704.56
2023-04-15T09:55:01.194Z,98705.28
2023-04-15T09:57:37.709Z,98706.84
2023-04-15T10:00:11.663Z,98713.41
2023-04-15T10:02:42.697Z,98714.81
2023-04-15T10:05:17.599Z,98708.97
2023-04-15T10:07:46.800Z,98708.16
2023-04-15T10:10:15.626Z,98709.38
2023-04-15T10:12:45.568Z,98705.28
2023-04-15T10:15:20.053Z,98699.81
2023-04-15T10:17:51.481Z,98692.47
2023-04-15T10:20:21.040Z,98690.91
2023-04-15T10:22:49.753Z,98688.16
2023-04-15T10:25:18.748Z,98686.50
2023-04-15T10:27:48.874Z,98678.47
2023-04-15T10:30:17.664Z,98676.94
2023-04-15T10:32:46.158Z,98674.94
2023-04-15T10:35:14.821Z,98674.25
2023-04-15T10:37:42.820Z,98658.94
2023-04-15T10:40:35.699Z,98660.03
2023-04-15T10:43:04.133Z,98658.06
2023-04-15T10:45:38.085Z,98646.69
2023-04-15T10:48:09.324Z,98645.28
2023-04-15T10:50:38.078Z,98649.44
2023-04-15T10:53:06.410Z,98645.81
2023-04-15T10:55:35.405Z,98648.75
2023-04-15T10:58:04.021Z,98648.34
2023-04-15T11:00:35.519Z,98658.88
2023-04-15T11:03:10.000Z,98656.97
2023-04-15T11:05:54.475Z,98647.53
2023-04-15T11:08:56.517Z,98662.44
2023-04-15T11:11:46.400Z,98663.97
2023-04-15T11:14:17.745Z,98665.06
2023-04-15T11:16:45.867Z,98652.91
2023-04-15T11:19:14.171Z,98660.81
2023-04-15T11:21:42.309Z,98664.50
2023-04-15T11:24:10.209Z,98665.53
2023-04-15T11:26:38.504Z,98659.97
2023-04-15T11:29:06.686Z,98666.94
2023-04-15T11:31:34.654Z,98663.00
2023-04-15T11:34:03.614Z,98662.38
2023-04-15T11:36:34.526Z,98663.50
2023-04-15T11:39:02.678Z,98662.53
2023-04-15T11:41:31.009Z,98666.47
2023-04-15T11:43:59.325Z,98664.81
2023-04-15T11:46:32.251Z,98666.31
2023-04-15T11:49:00.607Z,98661.25
2023-04-15T11:51:34.498Z,98658.97
2023-04-15T11:54:04.075Z,98657.47
2023-04-15T11:56:32.295Z,98656.34
2023-04-15T11:59:00.410Z,98660.06
2023-04-15T12:01:33.660Z,98658.41
2023-04-15T12:04:04.064Z,98662.59
2023-04-15T12:06:37.495Z,98667.78
2023-04-15T12:09:11.134Z,98661.06
2023-04-15T12:11:54.079Z,98666.50
2023-04-15T12:14:27.548Z,98661.75
2023-04-15T12:17:03.596Z,98670.00
2023-04-15T12:19:42.176Z,98673.81
2023-04-15T12:22:15.928Z,98675.97
2023-04-15T12:24:48.167Z,98663.75
2023-04-15T12:27:17.568Z,98677.94
2023-04-15T12:29:45.812Z,98672.16
2023-04-15T12:32:21.139Z,98667.53
2023-04-15T12:34:54.614Z,98681.06
2023-04-15T12:37:23.266Z,98687.47
2023-04-15T12:39:52.482Z,98691.19
2023-04-15T12:42:21.131Z,98686.47
2023-04-15T12:44:49.319Z,98686.94
2023-04-15T12:47:17.428Z,98666.22
2023-04-15T12:49:45.881Z,98671.56
2023-04-15T12:52:13.999Z,98677.28
2023-04-15T12:54:41.954Z,98676.91
2023-04-15T12:57:10.197Z,98677.16
2023-04-15T12:59:39.006Z,98669.97
2023-04-15T13:02:07.447Z,98673.38
2023-04-15T13:04:35.782Z,98668.44
2023-04-15T13:07:04.116Z,98675.63
2023-04-15T13:09:32.608Z,98670.94
2023-04-15T13:12:01.546Z,98678.28
2023-04-15T13:14:29.999Z,98677.13
2023-04-15T13:16:58.355Z,98673.44
2023-04-15T13:19:26.914Z,98669.59
2023-04-15T13:21:55.388Z,98659.03
2023-04-15T13:24:23.433Z,98670.63
2023-04-15T13:26:52.277Z,98676.13
2023-04-15T13:29:21.051Z,98659.94
2023-04-15T13:31:49.160Z,98675.09
2023-04-15T13:34:17.594Z,98674.22
2023-04-15T13:36:46.598Z,98676.91
2023-04-15T13:39:16.468Z,98683.44
2023-04-15T13:41:45.088Z,98680.13
2023-04-15T13:44:13.827Z,98686.91
2023-04-15T13:46:42.790Z,98702.22
2023-04-15T13:49:11.040Z,98700.63
2023-04-15T13:51:39.073Z,98710.41
2023-04-15T13:54:07.199Z,98703.72
2023-04-15T13:56:35.465Z,98709.97
2023-04-15T13:59:03.753Z,98712.56
2023-04-15T14:01:31.690Z,98727.63
2023-04-15T14:03:59.808Z,98724.72
2023-04-15T14:06:28.979Z,98712.13
2023-04-15T14:08:57.224Z,98723.78
2023-04-15T14:11:25.325Z,98716.47
2023-04-15T14:13:54.095Z,98724.59
2023-04-15T14:16:22.304Z,98720.31
2023-04-15T14:18:50.314Z,98720.88
2023-04-15T14:21:18.565Z,98723.44
2023-04-15T14:23:46.742Z,98713.78
2023-04-15T14:26:14.737Z,98709.31
2023-04-15T14:28:45.173Z,98707.41
2023-04-15T14:31:14.286Z,98709.09
2023-04-15T14:33:42.924Z,98697.63
2023-04-15T14:36:11.756Z,98695.59
2023-04-15T14:38:40.247Z,98689.25
2023-04-15T14:41:08.701Z,98715.56
2023-04-15T14:43:37.520Z,98728.78
2023-04-15T14:46:05.920Z,98738.75
2023-04-15T14:48:33.979Z,98737.34
2023-04-15T14:51:02.417Z,98739.38
2023-04-15T14:53:30.576Z,98734.66
2023-04-15T14:55:58.770Z,98733.00
2023-04-15T14:58:26.914Z,98725.47
2023-04-15T15:00:54.965Z,98729.94
2023-04-15T15:03:23.665Z,98720.41
2023-04-15T15:05:52.120Z,98733.56
2023-04-15T15:08:20.159Z,98745.38
2023-04-15T15:10:49.927Z,98757.03
2023-04-15T15:13:19.629Z,98748.56
2023-04-15T15:15:49.806Z,98761.44
2023-04-15T15:18:19.608Z,98761.88
2023-04-15T15:20:48.481Z,98777.06
2023-04-15T15:23:16.836Z,98778.72
2023-04-15T15:25:46.670Z,98776.53
2023-04-15T15:28:15.261Z,98764.22
2023-04-15T15:30:43.246Z,98786.25
2023-04-15T15:33:11.483Z,98775.78
2023-04-15T15:35:41.750Z,98794.66
2023-04-15T15:38:12.773Z,98799.81
2023-04-15T15:40:40.761Z,98796.06
2023-04-15T15:43:08.981Z,98811.75
2023-04-15T15:45:37.356Z,98800.28
2023-04-15T15:48:06.131Z,98814.66
2023-04-15T15:50:34.963Z,98815.56
2023-04-15T15:53:03.150Z,98823.19
2023-04-15T15:55:31.395Z,98821.53
2023-04-15T15:57:59.572Z,98833.16
2023-04-15T16:00:27.468Z,98834.41
2023-04-15T16:05:30.021Z,98839.63
2023-04-15T16:07:57.858Z,98838.38
2023-04-15T16:10:26.087Z,98841.22
2023-04-15T16:12:54.519Z,98838.31
2023-04-15T16:15:25.744Z,98849.38
2023-04-15T16:17:53.841Z,98839.75
2023-04-15T16:20:21.903Z,98852.72
2023-04-15T16:22:49.958Z,98846.78
2023-04-15T16:25:18.178Z,98854.25
2023-04-15T16:27:58.838Z,98862.34
2023-04-15T16:30:30.205Z,98855.81
2023-04-15T16:32:58.424Z,98866.75
2023-04-15T16:35:27.272Z,98871.28
2023-04-15T16:37:55.582Z,98867.66
2023-04-15T16:40:25.741Z,98869.84
2023-04-15T16:42:53.689Z,98875.66
2023-04-15T16:45:21.907Z,98877.47
2023-04-15T16:47:50.286Z,98882.16
2023-04-15T16:50:18.576Z,98883.66
2023-04-15T16:52:47.122Z,98890.19
2023-04-15T16:55:15.213Z,98898.69
2023-04-15T16:58:00.416Z,98899.00
2023-04-15T17:00:32.467Z,98898.50
2023-04-15T17:03:06.129Z,98906.16
2023-04-15T17:05:34.652Z,98903.50
2023-04-15T17:08:02.548Z,98909.78
2023-04-15T17:10:31.249Z,98915.78
2023-04-15T17:13:00.999Z,98909.63
2023-04-15T17:15:28.930Z,98916.25
2023-04-15T17:17:56.855Z,98918.22
2023-04-15T17:20:25.004Z,98914.78
2023-04-15T17:22:52.948Z,98918.56
2023-04-15T17:25:21.116Z,98915.03
2023-04-15T17:27:49.395Z,98924.16
2023-04-15T17:30:17.394Z,98921.50
2023-04-15T17:32:45.697Z,98923.31
2023-04-15T17:35:14.152Z,98920.28
2023-04-15T17:37:42.178Z,98928.91
2023-04-15T17:40:11.475Z,98928.38
2023-04-15T17:42:41.217Z,98932.84
2023-04-15T17:45:09.955Z,98937.03
2023-04-15T17:47:38.229Z,98947.44
2023-04-15T17:50:07.767Z,98957.38
2023-04-15T17:52:36.133Z,98953.69
2023-04-15T17:55:04.715Z,98951.84
2023-04-15T17:57:33.152Z,98954.41
2023-04-15T18:00:01.349Z,98949.75
2023-04-15T18:02:30.995Z,98946.88
2023-04-15T18:04:59.812Z,98965.78
2023-04-15T18:07:27.957Z,98963.13
2023-04-15T18:09:56.317Z,98972.25
2023-04-15T18:12:24.519Z,98973.53
2023-04-15T18:14:52.869Z,98975.66
2023-04-15T18:17:21.140Z,98985.25
2023-04-15T18:19:49.296Z,98993.22
2023-04-15T18:22:18.582Z,98986.41
2023-04-15T18:24:46.829Z,98988.16
2023-04-15T18:27:15.246Z,98992.09
2023-04-15T18:29:43.841Z,99002.66
2023-04-15T18:32:12.067Z,99003.78
2023-04-15T18:34:40.407Z,99001.28
2023-04-15T18:37:08.405Z,99004.41
2023-04-15T18:39:36.527Z,99015.69
2023-04-15T18:42:04.861Z,99011.38
2023-04-15T18:44:33.070Z,99022.28
2023-04-15T18:47:01.778Z,99013.78
2023-04-15T18:49:33.440Z,99024.03
2023-04-15T18:52:02.248Z,99027.13
2023-04-15T18:54:30.110Z,99027.56
2023-04-15T18:56:59.483Z,99029.69
2023-04-15T18:59:30.189Z,99025.91
2023-04-15T19:02:03.698Z,99028.84
2023-04-15T19:04:34.768Z,99032.13
2023-04-15T19:07:08.873Z,99028.22
2023-04-15T19:09:37.362Z,99031.34
2023-04-15T19:12:05.589Z,99033.88
2023-04-15T19:14:33.899Z,99034.63
2023-04-15T19:17:02.568Z,99038.41
2023-04-15T19:19:30.636Z,99046.81
2023-04-15T19:21:59.498Z,99051.41
2023-04-15T19:24:28.167Z,99053.53
2023-04-15T19:26:57.741Z,99050.59
2023-04-15T19:29:26.200Z,99058.31
2023-04-15T19:31:54.686Z,99057.34
2023-04-15T19:34:22.806Z,99065.25
2023-04-15T19:36:54.109Z,99063.88
2023-04-15T19:39:22.253Z,99064.72
2023-04-15T19:41:53.537Z,99071.16
2023-04-15T19:44:23.518Z,99065.88
2023-04-15T19:46:55.324Z,99063.78
2023-04-15T19:49:25.923Z,99063.06
2023-04-15T19:51:53.784Z,99079.69
2023-04-15T19:54:21.864Z,99076.31
2023-04-15T19:56:50.061Z,99080.81
2023-04-15T19:59:18.044Z,99081.63
2023-04-15T20:01:46.397Z,99088.47
2023-04-15T20:04:16.102Z,99085.13
2023-04-15T20:06:44.085Z,99084.44
2023-04-15T20:09:12.260Z,99086.22
2023-04-15T20:12:48.353Z,99090.03
2023-04-15T20:14:28.519Z,99084.88
2023-04-15T20:16:56.477Z,99085.44
2023-04-15T20:19:24.452Z,99089.34
2023-04-15T20:21:54.074Z,99090.03
2023-04-15T20:24:24.300Z,99096.91
2023-04-15T20:26:52.307Z,99096.47
2023-04-15T20:29:20.732Z,99093.28
2023-04-15T20:31:48.719Z,99099.56
2023-04-15T20:34:17.042Z,99092.44
2023-04-15T20:36:45.016Z,99101.34
2023-04-15T20:39:13.377Z,99096.59
2023-04-15T20:41:42.364Z,99099.56
2023-04-15T20:44:10.330Z,99096.47
2023-04-15T20:46:38.466Z,99106.94
2023-04-15T20:49:07.114Z,99098.56
2023-04-15T20:51:37.869Z,99097.47
2023-04-15T20:54:06.813Z,99097.03
2023-04-15T20:56:35.163Z,99102.94
2023-04-15T20:59:03.266Z,99094.69
2023-04-15T21:01:31.489Z,99103.63
2023-04-15T21:03:59.855Z,99103.88
2023-04-15T21:06:27.789Z,99106.53
2023-04-15T21:08:56.292Z,99111.41
2023-04-15T21:11:42.997Z,99113.91
2023-04-15T21:14:12.405Z,99121.19
2023-04-15T21:16:41.266Z,99125.22
2023-04-15T21:19:10.352Z,99122.31
2023-04-15T21:21:38.350Z,99130.38
2023-04-15T21:24:09.829Z,99129.69
2023-04-15T21:26:38.093Z,99131.44
2023-04-15T21:29:08.571Z,99135.09
2023-04-15T21:31:38.851Z,99134.41
2023-04-15T21:34:07.404Z,99136.75
2023-04-15T21:36:35.677Z,99143.44
2023-04-15T21:39:04.366Z,99140.50
2023-04-15T21:41:32.919Z,99139.94
2023-04-15T21:44:00.914Z,99142.47
2023-04-15T21:46:32.822Z,99145.97
2023-04-15T21:49:03.676Z,99146.81
2023-04-15T21:51:32.785Z,99151.28
2023-04-15T21:54:00.897Z,99145.97
2023-04-15T21:56:28.928Z,99147.63
2023-04-15T21:58:58.384Z,99154.91
2023-04-15T22:01:27.493Z,99158.94
2023-04-15T22:03:56.354Z,99166.06
2023-04-15T22:06:25.694Z,99161.03
2023-04-15T22:08:57.426Z,99159.50
2023-04-15T22:11:31.158Z,99165.09
2023-04-15T22:13:59.732Z,99170.66
2023-04-15T22:16:28.505Z,99167.03
2023-04-15T22:18:56.933Z,99168.03
2023-04-15T22:21:24.974Z,99166.88
2023-04-15T22:24:39.161Z,99167.72
2023-04-15T22:26:41.831Z,99168.88
2023-04-15T22:29:10.917Z,99175.00
2023-04-15T22:31:39.142Z,99173.31
2023-04-15T22:34:07.315Z,99173.72
2023-04-15T22:36:35.562Z,99180.56
2023-04-15T22:39:03.661Z,99179.19
2023-04-15T22:41:32.022Z,99179.19
2023-04-15T22:44:00.159Z,99174.69
2023-04-15T22:46:28.067Z,99181.66
2023-04-15T22:48:56.329Z,99178.47
2023-04-15T22:51:28.024Z,99186.56
2023-04-15T22:53:56.416Z,99193.16
2023-04-15T22:56:24.350Z,99193.56
2023-04-15T22:58:52.606Z,99193.00
2023-04-15T23:01:21.189Z,99194.50
2023-04-15T23:03:56.668Z,99188.81
2023-04-15T23:06:30.334Z,99187.28
2023-04-15T23:08:58.441Z,99188.09
2023-04-15T23:11:26.568Z,99189.78
2023-04-15T23:13:55.342Z,99189.53
2023-04-15T23:16:23.810Z,99190.06
2023-04-15T23:18:51.827Z,99187.00
2023-04-15T23:21:20.082Z,99194.41
2023-04-15T23:23:48.200Z,99189.22
2023-04-15T23:26:16.060Z,99187.00
2023-04-15T23:28:44.358Z,99191.88
2023-04-15T23:31:12.476Z,99193.00
2023-04-15T23:33:40.440Z,99201.66
2023-04-15T23:36:08.673Z,99196.22
2023-04-15T23:38:36.747Z,99198.72
2023-04-15T23:41:04.943Z,99200.97
2023-04-15T23:43:33.319Z,99200.69
2023-04-15T23:46:01.419Z,99201.94
2023-04-15T23:48:30.278Z,99204.56
2023-04-15T23:50:58.489Z,99213.78
2023-04-15T23:53:26.417Z,99211.84
2023-04-15T23:55:54.231Z,99207.53
2023-04-15T23:58:23.116Z,99207.94
